createdAt,value
2022-11-21T00:00:17.589Z,998.89
2022-11-21T00:01:17.593Z,998.84
2022-11-21T00:02:17.620Z,998.85
2022-11-21T00:03:17.597Z,998.90
2022-11-21T00:04:17.597Z,998.88
2022-11-21T00:05:17.593Z,998.90
2022-11-21T00:06:17.590Z,998.86
2022-11-21T00:07:17.656Z,998.87
2022-11-21T00:08:17.600Z,998.89
2022-11-21T00:09:17.595Z,998.86
2022-11-21T00:10:17.594Z,998.89
2022-11-21T00:11:17.605Z,998.85
2022-11-21T00:12:17.596Z,998.85
2022-11-21T00:13:17.599Z,998.84
2022-11-21T00:14:17.604Z,998.82
2022-11-21T00:15:17.607Z,998.77
2022-11-21T00:16:17.602Z,998.72
2022-11-21T00:17:17.608Z,998.73
2022-11-21T00:18:17.606Z,998.72
2022-11-21T00:19:17.600Z,998.71
2022-11-21T00:20:17.602Z,998.72
2022-11-21T00:21:17.610Z,998.71
2022-11-21T00:22:17.606Z,998.65
2022-11-21T00:23:17.605Z,998.67
2022-11-21T00:24:17.613Z,998.60
2022-11-21T00:25:17.605Z,998.64
2022-11-21T00:26:17.610Z,998.61
2022-11-21T00:27:17.613Z,998.60
2022-11-21T00:28:17.608Z,998.65
2022-11-21T00:29:17.608Z,998.62
2022-11-21T00:30:17.616Z,998.61
2022-11-21T00:31:17.609Z,998.58
2022-11-21T00:32:17.611Z,998.60
2022-11-21T00:33:17.617Z,998.52
2022-11-21T00:34:17.612Z,998.54
2022-11-21T00:35:17.612Z,998.49
2022-11-21T00:36:17.625Z,998.48
2022-11-21T00:37:17.624Z,998.48
2022-11-21T00:38:17.617Z,998.49
2022-11-21T00:39:17.615Z,998.50
2022-11-21T00:40:17.615Z,998.49
2022-11-21T00:41:17.617Z,998.49
2022-11-21T00:42:17.622Z,998.48
2022-11-21T00:43:17.624Z,998.46
2022-11-21T00:44:17.626Z,998.46
2022-11-21T00:45:23.868Z,998.44
2022-11-21T00:46:17.625Z,998.47
2022-11-21T00:47:17.628Z,998.40
2022-11-21T00:48:17.633Z,998.42
2022-11-21T00:49:17.630Z,998.45
2022-11-21T00:50:17.629Z,998.42
2022-11-21T00:51:17.624Z,998.44
2022-11-21T00:52:17.623Z,998.36
2022-11-21T00:53:17.635Z,998.36
2022-11-21T00:54:17.633Z,998.39
2022-11-21T00:55:17.634Z,998.35
2022-11-21T00:56:17.636Z,998.39
2022-11-21T00:57:17.634Z,998.35
2022-11-21T00:58:17.636Z,998.34
2022-11-21T00:59:17.629Z,998.35
2022-11-21T01:00:17.639Z,998.36
2022-11-21T01:01:17.708Z,998.31
2022-11-21T01:02:17.633Z,998.30
2022-11-21T01:03:17.632Z,998.26
2022-11-21T01:04:17.634Z,998.27
2022-11-21T01:05:17.640Z,998.27
2022-11-21T01:06:17.645Z,998.30
2022-11-21T01:07:17.706Z,998.29
2022-11-21T01:08:17.638Z,998.31
2022-11-21T01:09:17.644Z,998.27
2022-11-21T01:10:17.647Z,998.26
2022-11-21T01:15:26.793Z,998.21
2022-11-21T01:16:26.778Z,998.24
2022-11-21T01:17:26.775Z,998.26
2022-11-21T01:18:26.776Z,998.27
2022-11-21T01:19:26.784Z,998.24
2022-11-21T01:20:26.783Z,998.26
2022-11-21T01:21:26.788Z,998.23
2022-11-21T01:22:26.789Z,998.19
2022-11-21T01:23:26.780Z,998.22
2022-11-21T01:24:27.046Z,998.21
2022-11-21T01:25:26.790Z,998.19
2022-11-21T01:26:26.788Z,998.15
2022-11-21T01:27:26.791Z,998.19
2022-11-21T01:28:26.784Z,998.13
2022-11-21T01:29:26.794Z,998.13
2022-11-21T01:30:26.792Z,998.12
2022-11-21T01:31:26.814Z,998.15
2022-11-21T01:32:26.795Z,998.12
2022-11-21T01:33:26.798Z,998.08
2022-11-21T01:34:27.134Z,998.07
2022-11-21T01:35:26.795Z,998.09
2022-11-21T01:36:26.798Z,998.06
2022-11-21T01:37:26.800Z,998.04
2022-11-21T01:38:26.795Z,998.04
2022-11-21T01:39:26.794Z,998.09
2022-11-21T01:40:26.806Z,998.07
2022-11-21T01:41:26.796Z,998.06
2022-11-21T01:42:26.807Z,998.05
2022-11-21T01:43:26.806Z,998.03
2022-11-21T01:44:27.163Z,998.06
2022-11-21T01:45:26.801Z,998.06
2022-11-21T01:46:26.809Z,998.05
2022-11-21T01:47:26.829Z,998.05
2022-11-21T01:48:26.808Z,998.02
2022-11-21T01:49:26.815Z,997.99
2022-11-21T01:50:26.806Z,998.02
2022-11-21T01:51:26.806Z,998.02
2022-11-21T01:52:26.810Z,998.02
2022-11-21T01:53:26.808Z,998.04
2022-11-21T01:54:27.302Z,998.03
2022-11-21T01:55:26.812Z,998.07
2022-11-21T01:56:26.812Z,998.08
2022-11-21T01:57:26.828Z,998.03
2022-11-21T01:58:26.814Z,998.06
2022-11-21T01:59:26.823Z,998.09
2022-11-21T02:00:26.816Z,998.13
2022-11-21T02:01:26.892Z,998.06
2022-11-21T02:02:26.826Z,998.06
2022-11-21T02:03:26.842Z,998.06
2022-11-21T02:04:27.058Z,998.02
2022-11-21T02:05:26.831Z,997.98
2022-11-21T02:06:26.832Z,997.99
2022-11-21T02:07:26.872Z,998.01
2022-11-21T02:08:26.826Z,997.94
2022-11-21T02:09:26.836Z,997.98
2022-11-21T02:10:26.835Z,997.96
2022-11-21T02:11:26.850Z,997.94
2022-11-21T02:12:26.837Z,997.94
2022-11-21T02:13:26.840Z,997.91
2022-11-21T02:14:27.237Z,997.92
2022-11-21T02:15:26.833Z,997.89
2022-11-21T02:16:26.842Z,997.87
2022-11-21T02:17:26.835Z,997.85
2022-11-21T02:18:26.845Z,997.88
2022-11-21T02:19:26.859Z,997.82
2022-11-21T02:20:26.849Z,997.85
2022-11-21T02:21:26.847Z,997.84
2022-11-21T02:22:26.845Z,997.90
2022-11-21T02:23:26.848Z,997.89
2022-11-21T02:24:27.254Z,997.94
2022-11-21T02:25:26.844Z,997.93
2022-11-21T02:26:26.862Z,997.92
2022-11-21T02:27:26.846Z,997.89
2022-11-21T02:28:26.859Z,997.94
2022-11-21T02:29:26.857Z,997.94
2022-11-21T02:30:26.856Z,997.95
2022-11-21T02:31:26.859Z,997.96
2022-11-21T02:32:26.860Z,997.94
2022-11-21T02:33:26.865Z,997.95
2022-11-21T02:34:27.006Z,997.98
2022-11-21T02:35:26.882Z,997.95
2022-11-21T02:36:26.856Z,997.97
2022-11-21T02:37:26.866Z,997.90
2022-11-21T02:38:26.858Z,997.96
2022-11-21T02:39:26.868Z,997.90
2022-11-21T02:40:26.860Z,997.92
2022-11-21T02:41:27.015Z,997.88
2022-11-21T02:49:04.383Z,997.80
2022-11-21T02:50:04.387Z,997.79
2022-11-21T02:51:04.415Z,997.80
2022-11-21T02:52:04.382Z,997.80
2022-11-21T02:53:04.391Z,997.84
2022-11-21T02:54:04.383Z,997.81
2022-11-21T02:55:04.390Z,997.85
2022-11-21T02:56:04.391Z,997.84
2022-11-21T02:57:04.386Z,997.88
2022-11-21T02:58:05.453Z,997.89
2022-11-21T02:59:04.391Z,997.94
2022-11-21T03:00:04.390Z,997.90
2022-11-21T03:01:04.470Z,997.86
2022-11-21T03:02:04.391Z,997.89
2022-11-21T03:03:04.399Z,997.90
2022-11-21T03:04:04.400Z,997.91
2022-11-21T03:05:04.398Z,997.90
2022-11-21T03:06:04.402Z,997.88
2022-11-21T03:07:04.452Z,997.90
2022-11-21T03:08:04.397Z,997.86
2022-11-21T03:09:04.402Z,997.86
2022-11-21T03:10:04.451Z,997.90
2022-11-21T03:11:04.405Z,997.87
2022-11-21T03:12:04.406Z,997.90
2022-11-21T03:13:04.400Z,997.91
2022-11-21T03:14:04.408Z,997.94
2022-11-21T03:15:04.402Z,997.90
2022-11-21T03:16:04.411Z,997.90
2022-11-21T03:17:04.403Z,997.86
2022-11-21T03:18:04.415Z,997.93
2022-11-21T03:19:04.405Z,997.92
2022-11-21T03:20:04.454Z,998.01
2022-11-21T03:21:04.416Z,998.02
2022-11-21T03:22:04.416Z,998.01
2022-11-21T03:23:04.440Z,998.02
2022-11-21T03:24:04.415Z,998.02
2022-11-21T03:25:04.412Z,998.04
2022-11-21T03:26:04.412Z,998.07
2022-11-21T03:27:04.416Z,998.03
2022-11-21T03:28:04.423Z,998.03
2022-11-21T03:29:04.425Z,998.06
2022-11-21T03:30:04.416Z,998.07
2022-11-21T03:31:04.427Z,998.10
2022-11-21T03:32:04.427Z,998.10
2022-11-21T03:33:04.421Z,998.10
2022-11-21T03:34:04.426Z,998.12
2022-11-21T03:35:04.424Z,998.15
2022-11-21T03:36:04.425Z,998.13
2022-11-21T03:37:04.434Z,998.16
2022-11-21T03:38:04.435Z,998.13
2022-11-21T03:39:04.448Z,998.04
2022-11-21T03:40:04.437Z,998.10
2022-11-21T03:41:04.429Z,998.11
2022-11-21T03:42:04.432Z,998.11
2022-11-21T03:43:04.431Z,998.12
2022-11-21T03:44:04.446Z,998.09
2022-11-21T03:45:04.437Z,998.08
2022-11-21T03:46:04.442Z,998.06
2022-11-21T03:47:04.437Z,998.04
2022-11-21T03:48:04.437Z,998.04
2022-11-21T03:49:04.444Z,998.08
2022-11-21T03:50:04.447Z,998.10
2022-11-21T03:51:04.447Z,998.10
2022-11-21T03:52:04.441Z,998.13
2022-11-21T03:53:04.447Z,998.17
2022-11-21T03:54:04.449Z,998.15
2022-11-21T03:55:04.465Z,998.17
2022-11-21T03:56:04.444Z,998.17
2022-11-21T03:57:04.453Z,998.20
2022-11-21T03:58:04.452Z,998.21
2022-11-21T03:59:04.456Z,998.22
2022-11-21T04:00:04.533Z,998.23
2022-11-21T04:01:04.569Z,998.25
2022-11-21T04:02:04.460Z,998.22
2022-11-21T04:03:04.451Z,998.28
2022-11-21T04:04:04.453Z,998.24
2022-11-21T04:05:04.452Z,998.30
2022-11-21T04:06:04.464Z,998.32
2022-11-21T04:07:04.485Z,998.34
2022-11-21T04:08:04.466Z,998.37
2022-11-21T04:09:04.463Z,998.38
2022-11-21T04:16:47.022Z,998.43
2022-11-21T04:17:46.984Z,998.46
2022-11-21T04:18:46.997Z,998.48
2022-11-21T04:19:46.992Z,998.47
2022-11-21T04:20:46.986Z,998.47
2022-11-21T04:21:46.994Z,998.47
2022-11-21T04:22:46.985Z,998.51
2022-11-21T04:23:46.995Z,998.49
2022-11-21T04:24:46.995Z,998.51
2022-11-21T04:25:47.002Z,998.56
2022-11-21T04:26:46.990Z,998.55
2022-11-21T04:27:46.992Z,998.57
2022-11-21T04:28:46.992Z,998.58
2022-11-21T04:29:46.992Z,998.55
2022-11-21T04:30:47.002Z,998.54
2022-11-21T04:31:46.999Z,998.56
2022-11-21T04:32:47.018Z,998.53
2022-11-21T04:33:47.002Z,998.50
2022-11-21T04:34:46.997Z,998.48
2022-11-21T04:35:47.003Z,998.52
2022-11-21T04:36:47.051Z,998.55
2022-11-21T04:37:47.007Z,998.57
2022-11-21T04:38:47.004Z,998.56
2022-11-21T04:39:47.009Z,998.59
2022-11-21T04:40:47.012Z,998.58
2022-11-21T04:41:47.003Z,998.59
2022-11-21T04:42:47.012Z,998.62
2022-11-21T04:43:47.004Z,998.66
2022-11-21T04:44:47.014Z,998.66
2022-11-21T04:45:47.017Z,998.70
2022-11-21T04:46:47.009Z,998.71
2022-11-21T04:47:47.016Z,998.74
2022-11-21T04:48:47.036Z,998.71
2022-11-21T04:49:47.012Z,998.70
2022-11-21T04:50:47.017Z,998.70
2022-11-21T04:51:47.021Z,998.71
2022-11-21T04:52:47.022Z,998.67
2022-11-21T04:53:47.021Z,998.70
2022-11-21T04:54:47.022Z,998.69
2022-11-21T04:55:47.015Z,998.70
2022-11-21T04:56:47.026Z,998.67
2022-11-21T04:57:47.029Z,998.71
2022-11-21T04:58:47.024Z,998.65
2022-11-21T04:59:47.026Z,998.67
2022-11-21T05:00:47.031Z,998.66
2022-11-21T05:01:47.029Z,998.70
2022-11-21T05:02:47.033Z,998.69
2022-11-21T05:03:47.023Z,998.70
2022-11-21T05:04:47.052Z,998.70
2022-11-21T05:05:47.026Z,998.72
2022-11-21T05:06:47.033Z,998.70
2022-11-21T05:07:47.034Z,998.72
2022-11-21T05:08:51.759Z,998.70
2022-11-21T05:09:47.029Z,998.71
2022-11-21T05:10:47.036Z,998.73
2022-11-21T05:11:47.042Z,998.66
2022-11-21T05:12:47.033Z,998.69
2022-11-21T05:13:47.034Z,998.69
2022-11-21T05:14:47.048Z,998.69
2022-11-21T05:15:47.045Z,998.71
2022-11-21T05:16:47.035Z,998.71
2022-11-21T05:17:47.039Z,998.71
2022-11-21T05:18:47.046Z,998.73
2022-11-21T05:19:47.049Z,998.77
2022-11-21T05:20:47.071Z,998.85
2022-11-21T05:21:47.052Z,998.80
2022-11-21T05:22:47.051Z,998.88
2022-11-21T05:23:47.044Z,998.87
2022-11-21T05:24:47.051Z,998.87
2022-11-21T05:31:39.478Z,998.87
2022-11-21T05:32:39.490Z,998.87
2022-11-21T05:33:39.486Z,998.87
2022-11-21T05:34:39.479Z,998.86
2022-11-21T05:35:43.172Z,998.88
2022-11-21T05:36:39.502Z,998.86
2022-11-21T05:37:39.481Z,998.84
2022-11-21T05:38:39.488Z,998.87
2022-11-21T05:39:39.486Z,998.86
2022-11-21T05:40:39.485Z,998.87
2022-11-21T05:41:39.493Z,998.88
2022-11-21T05:42:39.492Z,998.85
2022-11-21T05:43:39.499Z,998.89
2022-11-21T05:44:39.487Z,998.89
2022-11-21T05:45:39.490Z,998.97
2022-11-21T05:46:39.497Z,998.91
2022-11-21T05:47:39.490Z,998.93
2022-11-21T05:48:39.490Z,998.97
2022-11-21T05:49:39.496Z,998.92
2022-11-21T05:50:39.498Z,998.95
2022-11-21T05:51:39.501Z,998.97
2022-11-21T05:52:39.523Z,998.99
2022-11-21T05:53:39.500Z,998.96
2022-11-21T05:54:42.448Z,999.01
2022-11-21T05:55:39.504Z,999.01
2022-11-21T05:56:39.512Z,999.08
2022-11-21T05:57:39.499Z,999.11
2022-11-21T05:58:39.508Z,999.11
2022-11-21T05:59:39.508Z,999.11
2022-11-21T06:00:39.511Z,999.10
2022-11-21T06:01:39.509Z,999.13
2022-11-21T06:02:39.563Z,999.07
2022-11-21T06:03:39.506Z,999.08
2022-11-21T07:09:32.241Z,999.48
2022-11-21T07:10:04.018Z,999.48
2022-11-21T07:11:24.173Z,999.53
2022-11-21T07:12:04.001Z,999.55
2022-11-21T07:13:03.999Z,999.55
2022-11-21T07:14:08.950Z,999.54
2022-11-21T07:15:04.098Z,999.62
2022-11-21T07:16:04.002Z,999.57
2022-11-21T07:17:03.990Z,999.63
2022-11-21T07:18:03.993Z,999.61
2022-11-21T07:19:03.992Z,999.64
2022-11-21T07:20:03.999Z,999.63
2022-11-21T07:21:03.990Z,999.60
2022-11-21T07:22:03.997Z,999.61
2022-11-21T07:23:04.001Z,999.59
2022-11-21T07:24:03.990Z,999.65
2022-11-21T07:25:04.012Z,999.67
2022-11-21T07:26:03.997Z,999.63
2022-11-21T07:27:03.999Z,999.63
2022-11-21T07:28:03.989Z,999.68
2022-11-21T07:29:03.998Z,999.62
2022-11-21T07:30:03.991Z,999.66
2022-11-21T07:31:08.543Z,999.64
2022-11-21T07:32:03.997Z,999.59
2022-11-21T07:33:03.991Z,999.58
2022-11-21T07:34:03.997Z,999.59
2022-11-21T07:35:03.993Z,999.60
2022-11-21T07:36:03.990Z,999.66
2022-11-21T07:37:05.300Z,999.64
2022-11-21T07:38:03.991Z,999.63
2022-11-21T07:39:03.991Z,999.65
2022-11-21T07:40:04.000Z,999.64
2022-11-21T07:41:04.023Z,999.70
2022-11-21T07:42:03.999Z,999.71
2022-11-21T07:43:09.452Z,999.71
2022-11-21T07:44:03.995Z,999.70
2022-11-21T07:45:03.998Z,999.77
2022-11-21T07:46:04.004Z,999.75
2022-11-21T07:47:04.002Z,999.77
2022-11-21T07:48:04.001Z,999.74
2022-11-21T07:49:04.077Z,999.79
2022-11-21T07:50:04.003Z,999.79
2022-11-21T07:51:04.007Z,999.82
2022-11-21T07:52:04.002Z,999.82
2022-11-21T07:53:03.995Z,999.83
2022-11-21T07:54:04.005Z,999.83
2022-11-21T07:55:04.000Z,999.80
2022-11-21T07:56:04.001Z,999.81
2022-11-21T07:57:04.029Z,999.79
2022-11-21T07:58:04.002Z,999.75
2022-11-21T07:59:04.012Z,999.76
2022-11-21T08:09:23.023Z,999.73
2022-11-21T08:10:23.018Z,999.76
2022-11-21T08:11:23.019Z,999.75
2022-11-21T08:12:23.046Z,999.79
2022-11-21T08:13:23.027Z,999.76
2022-11-21T08:14:23.023Z,999.73
2022-11-21T08:15:23.021Z,999.76
2022-11-21T08:16:23.017Z,999.78
2022-11-21T08:17:23.019Z,999.81
2022-11-21T08:18:23.018Z,999.74
2022-11-21T08:19:23.027Z,999.70
2022-11-21T08:20:23.030Z,999.67
2022-11-21T08:21:23.030Z,999.70
2022-11-21T08:22:23.021Z,999.65
2022-11-21T08:23:23.031Z,999.68
2022-11-21T08:24:23.025Z,999.63
2022-11-21T08:47:40.310Z,999.54
2022-11-21T08:48:40.284Z,999.57
2022-11-21T08:49:40.291Z,999.51
2022-11-21T10:09:26.733Z,999.77
2022-11-21T10:10:26.720Z,999.77
2022-11-21T10:11:26.730Z,999.76
2022-11-21T10:12:26.737Z,999.77
2022-11-21T10:13:26.753Z,999.79
2022-11-21T10:17:22.657Z,999.73
2022-11-21T10:18:22.674Z,999.78
2022-11-21T10:19:22.674Z,999.72
2022-11-21T10:20:22.691Z,999.72
2022-11-21T10:21:22.699Z,999.73
2022-11-21T10:22:22.707Z,999.72
2022-11-21T10:23:22.716Z,999.67
2022-11-21T10:24:22.726Z,999.66
2022-11-21T10:25:26.659Z,999.65
2022-11-21T10:27:20.310Z,999.66
2022-11-21T10:28:20.325Z,999.63
2022-11-21T10:29:20.334Z,999.65
2022-11-21T10:30:20.340Z,999.70
2022-11-21T10:31:20.353Z,999.68
2022-11-21T10:32:20.366Z,999.66
2022-11-21T10:33:20.360Z,999.66
2022-11-21T10:34:20.372Z,999.67
2022-11-21T10:35:20.382Z,999.70
2022-11-21T10:38:46.257Z,999.60
2022-11-21T10:39:46.255Z,999.60
2022-11-21T10:40:46.287Z,999.59
2022-11-21T10:44:12.130Z,999.60
2022-11-21T10:45:12.147Z,999.62
2022-11-21T10:46:12.154Z,999.61
2022-11-21T10:47:12.156Z,999.57
2022-11-21T10:48:12.165Z,999.52
2022-11-21T10:49:12.181Z,999.56
2022-11-21T10:50:12.186Z,999.51
2022-11-21T12:25:38.768Z,999.14
2022-11-21T12:26:38.757Z,999.03
2022-11-21T12:27:38.763Z,999.07
2022-11-21T12:28:38.772Z,999.07
2022-11-21T12:29:38.770Z,999.02
2022-11-21T12:30:38.787Z,999.00
2022-11-21T12:31:38.787Z,998.99
2022-11-21T12:32:38.802Z,998.94
2022-11-21T12:33:38.808Z,998.96
2022-11-21T12:34:38.806Z,998.92
2022-11-21T12:35:38.821Z,998.91
2022-11-21T12:36:38.820Z,998.87
2022-11-21T12:37:38.827Z,998.89
2022-11-21T12:38:44.533Z,998.84
2022-11-21T12:39:38.840Z,998.85
2022-11-21T12:40:38.855Z,998.83
2022-11-21T12:41:38.882Z,998.82
2022-11-21T12:42:38.863Z,998.85
2022-11-21T12:43:38.865Z,998.74
2022-11-21T12:44:38.875Z,998.74
2022-11-21T12:45:38.883Z,998.68
2022-11-21T12:46:38.878Z,998.68
2022-11-21T12:47:38.886Z,998.70
2022-11-21T12:48:38.898Z,998.69
2022-11-21T12:49:38.896Z,998.71
2022-11-21T12:50:38.909Z,998.66
2022-11-21T12:51:38.913Z,998.67
2022-11-21T12:52:38.919Z,998.64
2022-11-21T12:53:38.915Z,998.65
2022-11-21T12:54:38.925Z,998.62
2022-11-21T12:55:38.933Z,998.58
2022-11-21T12:56:38.938Z,998.60
2022-11-21T12:57:38.960Z,998.65
2022-11-21T12:58:38.941Z,998.60
2022-11-21T12:59:38.945Z,998.64
2022-11-21T13:00:38.959Z,998.61
2022-11-21T13:01:39.060Z,998.60
2022-11-21T13:02:38.961Z,998.60
2022-11-21T13:03:38.972Z,998.58
2022-11-21T13:04:38.969Z,998.56
2022-11-21T13:05:38.972Z,998.57
2022-11-21T13:06:39.089Z,998.51
2022-11-21T13:07:39.029Z,998.53
2022-11-21T13:08:38.987Z,998.47
2022-11-21T13:09:38.998Z,998.43
2022-11-21T13:10:38.999Z,998.48
2022-11-21T13:11:39.004Z,998.43
2022-11-21T13:12:39.000Z,998.46
2022-11-21T13:13:39.029Z,998.45
2022-11-21T13:14:39.015Z,998.44
2022-11-21T13:15:39.013Z,998.39
2022-11-21T13:16:39.015Z,998.42
2022-11-21T13:17:39.020Z,998.40
2022-11-21T13:18:39.030Z,998.39
2022-11-21T13:19:39.027Z,998.38
2022-11-21T13:20:39.031Z,998.42
2022-11-21T13:21:40.794Z,998.39
2022-11-21T13:22:39.044Z,998.40
2022-11-21T13:23:39.053Z,998.39
2022-11-21T13:24:39.054Z,998.37
2022-11-21T13:25:40.059Z,998.39
2022-11-21T13:27:26.612Z,998.37
2022-11-21T13:28:26.611Z,998.40
2022-11-21T13:29:26.944Z,998.37
2022-11-21T13:30:26.619Z,998.38
2022-11-21T13:31:26.626Z,998.41
2022-11-21T13:32:26.620Z,998.44
2022-11-21T13:33:26.622Z,998.47
2022-11-21T13:34:27.017Z,998.49
2022-11-21T13:35:26.637Z,998.43
2022-11-21T13:36:26.638Z,998.43
2022-11-21T13:37:26.637Z,998.45
2022-11-21T13:38:26.645Z,998.39
2022-11-21T13:39:27.101Z,998.38
2022-11-21T13:40:26.651Z,998.33
2022-11-21T13:41:26.663Z,998.36
2022-11-21T13:42:26.694Z,998.34
2022-11-21T13:43:35.001Z,998.37
2022-11-21T13:44:26.667Z,998.36
2022-11-21T13:45:26.685Z,998.41
2022-11-21T13:46:26.676Z,998.40
2022-11-21T13:47:26.682Z,998.36
2022-11-21T13:48:26.685Z,998.40
2022-11-21T13:49:27.089Z,998.36
2022-11-21T13:50:26.686Z,998.38
2022-11-21T13:51:26.689Z,998.33
2022-11-21T13:52:26.691Z,998.41
2022-11-21T13:53:26.687Z,998.32
2022-11-21T13:54:26.691Z,998.33
2022-11-21T13:55:26.700Z,998.32
2022-11-21T13:56:26.703Z,998.32
2022-11-21T13:57:26.698Z,998.28
2022-11-21T13:58:26.709Z,998.39
2022-11-21T13:59:27.075Z,998.35
2022-11-21T14:00:26.705Z,998.33
2022-11-21T14:01:26.820Z,998.34
2022-11-21T14:02:26.712Z,998.37
2022-11-21T14:03:26.725Z,998.38
2022-11-21T14:04:26.717Z,998.37
2022-11-21T14:05:26.729Z,998.37
2022-11-21T14:06:35.501Z,998.38
2022-11-21T14:07:26.925Z,998.39
2022-11-21T14:08:26.845Z,998.39
2022-11-21T14:09:27.157Z,998.41
2022-11-21T14:10:26.735Z,998.47
2022-11-21T14:11:26.738Z,998.50
2022-11-21T14:12:32.706Z,998.52
2022-11-21T14:13:26.750Z,998.49
2022-11-21T14:14:26.745Z,998.48
2022-11-21T14:15:26.753Z,998.43
2022-11-21T14:16:26.756Z,998.50
2022-11-21T14:17:26.818Z,998.45
2022-11-21T14:18:26.755Z,998.44
2022-11-21T14:19:27.053Z,998.43
2022-11-21T14:20:26.771Z,998.40
2022-11-21T14:21:26.774Z,998.43
2022-11-21T14:22:30.577Z,998.34
2022-11-21T14:23:26.769Z,998.35
2022-11-21T14:24:26.778Z,998.32
2022-11-21T14:25:26.781Z,998.27
2022-11-21T14:26:26.775Z,998.25
2022-11-21T14:27:26.778Z,998.22
2022-11-21T14:28:26.779Z,998.19
2022-11-21T14:29:27.066Z,998.16
2022-11-21T14:30:26.792Z,998.18
2022-11-21T14:31:26.814Z,998.20
2022-11-21T14:32:26.796Z,998.19
2022-11-21T14:33:26.824Z,998.18
2022-11-21T14:34:27.073Z,998.23
2022-11-21T14:35:26.807Z,998.20
2022-11-21T14:36:26.805Z,998.21
2022-11-21T14:37:26.807Z,998.25
2022-11-21T14:38:26.814Z,998.23
2022-11-21T14:39:37.297Z,998.24
2022-11-21T14:40:26.815Z,998.23
2022-11-21T14:41:26.823Z,998.23
2022-11-21T14:42:26.820Z,998.21
2022-11-21T14:43:26.824Z,998.25
2022-11-21T14:44:27.181Z,998.23
2022-11-21T14:45:26.898Z,998.27
2022-11-21T14:46:26.819Z,998.25
2022-11-21T14:47:27.025Z,998.25
2022-11-21T14:48:26.823Z,998.25
2022-11-21T14:49:26.853Z,998.26
2022-11-21T14:50:26.830Z,998.23
2022-11-21T14:51:26.838Z,998.26
2022-11-21T14:52:26.831Z,998.29
2022-11-21T14:53:26.841Z,998.26
2022-11-21T14:54:27.221Z,998.30
2022-11-21T14:55:31.251Z,998.29
2022-11-21T14:56:26.837Z,998.24
2022-11-21T14:57:26.848Z,998.21
2022-11-21T14:58:26.843Z,998.28
2022-11-21T14:59:26.846Z,998.22
2022-11-21T15:01:26.860Z,998.23
2022-11-21T15:02:26.849Z,998.25
2022-11-21T15:03:26.912Z,998.24
2022-11-21T15:04:27.308Z,998.29
2022-11-21T15:05:47.262Z,998.32
2022-11-21T15:06:26.855Z,998.33
2022-11-21T15:07:31.524Z,998.34
2022-11-21T15:10:29.756Z,998.30
2022-11-21T15:11:26.865Z,998.31
2022-11-21T15:12:26.874Z,998.30
2022-11-21T15:13:39.493Z,998.28
2022-11-21T15:14:26.871Z,998.26
2022-11-21T15:15:26.878Z,998.17
2022-11-21T15:16:26.888Z,998.18
2022-11-21T15:17:26.874Z,998.17
2022-11-21T15:18:28.399Z,998.17
2022-11-21T15:19:27.503Z,998.16
2022-11-21T15:20:26.887Z,998.19
2022-11-21T15:21:26.919Z,998.20
2022-11-21T15:22:26.883Z,998.15
2022-11-21T15:23:26.891Z,998.21
2022-11-21T15:24:26.894Z,998.18
2022-11-21T15:25:26.895Z,998.17
2022-11-21T15:26:26.889Z,998.14
2022-11-21T15:27:26.906Z,998.13
2022-11-21T15:28:26.892Z,998.09
2022-11-21T15:29:27.257Z,998.09
2022-11-21T15:30:26.895Z,998.12
2022-11-21T15:31:26.910Z,998.11
2022-11-21T15:32:26.904Z,998.12
2022-11-21T15:33:26.899Z,998.15
2022-11-21T15:34:35.272Z,998.11
2022-11-21T15:35:31.800Z,998.07
2022-11-21T15:36:26.902Z,998.10
2022-11-21T15:37:26.954Z,998.06
2022-11-21T15:38:26.909Z,998.03
2022-11-21T15:39:26.909Z,998.04
2022-11-21T15:40:26.914Z,998.06
2022-11-21T15:41:26.917Z,998.07
2022-11-21T15:42:26.920Z,998.01
2022-11-21T15:43:26.919Z,997.99
2022-11-21T15:44:27.214Z,997.98
2022-11-21T15:45:26.977Z,997.93
2022-11-21T15:46:26.924Z,997.95
2022-11-21T15:47:26.918Z,997.91
2022-11-21T15:48:26.920Z,997.90
2022-11-21T15:49:34.089Z,997.86
2022-11-21T15:50:26.923Z,997.82
2022-11-21T15:51:44.346Z,997.77
2022-11-21T15:52:26.924Z,997.78
2022-11-21T15:53:26.951Z,997.76
2022-11-21T15:54:27.630Z,997.72
2022-11-21T15:55:26.930Z,997.76
2022-11-21T15:56:26.929Z,997.71
2022-11-21T15:57:26.930Z,997.72
2022-11-21T15:58:26.942Z,997.69
2022-11-21T15:59:27.356Z,997.65
2022-11-21T16:00:26.940Z,997.66
2022-11-21T16:01:26.967Z,997.71
2022-11-21T16:02:26.944Z,997.72
2022-11-21T16:03:26.946Z,997.67
2022-11-21T16:04:26.945Z,997.68
2022-11-21T16:05:26.954Z,997.66
2022-11-21T16:06:26.940Z,997.69
2022-11-21T16:07:27.031Z,997.70
2022-11-21T16:08:26.941Z,997.67
2022-11-21T16:09:27.298Z,997.69
2022-11-21T16:10:28.074Z,997.66
2022-11-21T16:11:26.955Z,997.64
2022-11-21T16:12:26.946Z,997.60
2022-11-21T16:13:26.950Z,997.57
2022-11-21T16:14:26.951Z,997.59
2022-11-21T16:15:26.952Z,997.55
2022-11-21T16:16:26.952Z,997.52
2022-11-21T16:17:26.953Z,997.55
2022-11-21T16:18:26.964Z,997.52
2022-11-21T16:19:27.373Z,997.46
2022-11-21T16:20:26.964Z,997.45
2022-11-21T16:21:26.965Z,997.44
2022-11-21T16:22:26.967Z,997.39
2022-11-21T16:23:26.966Z,997.40
2022-11-21T16:24:26.960Z,997.37
2022-11-21T16:25:26.989Z,997.37
2022-11-21T16:26:26.970Z,997.37
2022-11-21T16:27:26.962Z,997.41
2022-11-21T16:28:26.972Z,997.42
2022-11-21T16:29:27.360Z,997.43
2022-11-21T16:30:26.972Z,997.35
2022-11-21T16:31:26.975Z,997.31
2022-11-21T16:32:26.976Z,997.30
2022-11-21T16:33:27.421Z,997.24
2022-11-21T16:34:26.969Z,997.21
2022-11-21T16:35:26.972Z,997.25
2022-11-21T16:36:26.970Z,997.23
2022-11-21T16:37:26.980Z,997.18
2022-11-21T16:38:26.979Z,997.19
2022-11-21T16:39:26.975Z,997.26
2022-11-21T16:40:26.984Z,997.24
2022-11-21T16:41:27.001Z,997.29
2022-11-21T16:42:26.975Z,997.36
2022-11-21T16:43:26.985Z,997.35
2022-11-21T16:44:26.995Z,997.38
2022-11-21T16:45:26.980Z,997.31
2022-11-21T16:46:26.988Z,997.35
2022-11-21T16:47:26.982Z,997.37
2022-11-21T16:48:26.989Z,997.35
2022-11-21T16:49:27.458Z,997.36
2022-11-21T16:50:26.983Z,997.37
2022-11-21T16:51:26.992Z,997.34
2022-11-21T16:52:26.990Z,997.32
2022-11-21T16:53:26.987Z,997.25
2022-11-21T16:54:26.992Z,997.30
2022-11-21T16:55:26.995Z,997.28
2022-11-21T16:56:26.995Z,997.29
2022-11-21T16:57:27.019Z,997.31
2022-11-21T16:58:26.997Z,997.31
2022-11-21T16:59:27.442Z,997.34
2022-11-21T17:00:26.998Z,997.33
2022-11-21T17:01:27.099Z,997.35
2022-11-21T17:02:26.993Z,997.34
2022-11-21T17:03:27.001Z,997.35
2022-11-21T17:04:27.004Z,997.34
2022-11-21T17:05:27.002Z,997.36
2022-11-21T17:06:27.119Z,997.34
2022-11-21T17:07:27.041Z,997.32
2022-11-21T17:08:27.005Z,997.35
2022-11-21T17:09:26.999Z,997.29
2022-11-21T17:10:32.545Z,997.28
2022-11-21T17:11:27.008Z,997.26
2022-11-21T17:12:27.005Z,997.26
2022-11-21T17:13:27.025Z,997.28
2022-11-21T17:14:27.574Z,997.28
2022-11-21T17:15:27.011Z,997.29
2022-11-21T17:16:27.002Z,997.29
2022-11-21T17:17:27.004Z,997.33
2022-11-21T17:18:27.010Z,997.40
2022-11-21T17:19:27.017Z,997.41
2022-11-21T17:20:27.007Z,997.43
2022-11-21T17:21:27.008Z,997.46
2022-11-21T17:22:27.013Z,997.48
2022-11-21T17:23:27.016Z,997.46
2022-11-21T17:24:27.288Z,997.49
2022-11-21T17:25:27.008Z,997.45
2022-11-21T17:26:27.033Z,997.47
2022-11-21T17:27:27.011Z,997.42
2022-11-21T17:28:27.011Z,997.33
2022-11-21T17:29:27.046Z,997.29
2022-11-21T17:30:27.020Z,997.26
2022-11-21T17:31:27.025Z,997.22
2022-11-21T17:32:27.014Z,997.24
2022-11-21T17:33:27.021Z,997.22